createdAt,value
2024-01-04T00:00:44.483Z,98082.20
2024-01-04T00:03:17.133Z,98085.95
2024-01-04T00:05:49.706Z,98080.49
2024-01-04T00:08:22.054Z,98079.04
2024-01-04T00:10:54.746Z,98082.67
2024-01-04T00:13:27.429Z,98086.30
2024-01-04T00:16:00.170Z,98080.09
2024-01-04T00:18:33.616Z,98081.78
2024-01-04T00:21:06.261Z,98073.91
2024-01-04T00:23:38.846Z,98075.97
2024-01-04T00:26:11.716Z,98075.60
2024-01-04T00:28:45.466Z,98068.94
2024-01-04T00:31:17.901Z,98059.73
2024-01-04T00:33:50.958Z,98058.62
2024-01-04T00:36:23.319Z,98063.36
2024-01-04T00:38:55.774Z,98056.91
2024-01-04T00:41:28.376Z,98061.42
2024-01-04T00:44:00.901Z,98059.23
2024-01-04T00:46:34.629Z,98073.55
2024-01-04T00:49:07.942Z,98066.76
2024-01-04T00:51:41.271Z,98074.02
2024-01-04T00:54:14.261Z,98075.70
2024-01-04T00:56:46.900Z,98073.42
2024-01-04T00:59:20.173Z,98074.73
2024-01-04T01:01:53.704Z,98067.57
2024-01-04T01:04:26.064Z,98078.82
2024-01-04T01:06:58.624Z,98069.23
2024-01-04T01:09:31.040Z,98068.51
2024-01-04T01:12:03.674Z,98070.55
2024-01-04T01:14:36.465Z,98069.81
2024-01-04T01:17:09.769Z,98067.73
2024-01-04T01:19:42.355Z,98064.70
2024-01-04T01:22:16.492Z,98064.83
2024-01-04T01:24:48.929Z,98063.05
2024-01-04T01:27:22.535Z,98067.15
2024-01-04T01:29:56.796Z,98060.35
2024-01-04T01:32:28.544Z,98063.75
2024-01-04T01:35:01.519Z,98070.92
2024-01-04T01:37:37.584Z,98069.58
2024-01-04T01:40:10.453Z,98070.56
2024-01-04T01:42:44.643Z,98073.97
2024-01-04T01:45:19.032Z,98069.44
2024-01-04T01:47:52.200Z,98080.36
2024-01-04T01:50:25.593Z,98080.47
2024-01-04T01:52:58.903Z,98080.23
2024-01-04T01:55:31.617Z,98079.86
2024-01-04T01:58:05.105Z,98082.55
2024-01-04T02:00:38.388Z,98085.22
2024-01-04T02:03:12.447Z,98085.24
2024-01-04T02:05:46.231Z,98083.91
2024-01-04T02:08:19.448Z,98090.59
2024-01-04T02:10:52.200Z,98088.76
2024-01-04T02:13:24.673Z,98091.17
2024-01-04T02:15:57.002Z,98091.91
2024-01-04T02:18:29.890Z,98093.13
2024-01-04T02:21:03.275Z,98090.58
2024-01-04T02:23:35.791Z,98086.33
2024-01-04T02:26:08.791Z,98084.64
2024-01-04T02:28:42.140Z,98089.22
2024-01-04T02:31:14.809Z,98083.86
2024-01-04T02:33:47.839Z,98086.28
2024-01-04T02:36:21.205Z,98085.77
2024-01-04T02:38:53.891Z,98085.05
2024-01-04T02:41:27.358Z,98088.29
2024-01-04T02:43:59.786Z,98089.15
2024-01-04T02:46:32.969Z,98090.86
2024-01-04T02:49:05.693Z,98095.63
2024-01-04T02:51:38.678Z,98095.47
2024-01-04T02:54:11.761Z,98100.94
2024-01-04T02:56:44.437Z,98099.09
2024-01-04T02:59:16.930Z,98101.51
2024-01-04T03:01:50.340Z,98094.45
2024-01-04T03:04:22.791Z,98095.67
2024-01-04T03:06:55.234Z,98098.81
2024-01-04T03:09:27.817Z,98097.35
2024-01-04T03:12:00.375Z,98089.59
2024-01-04T03:14:33.432Z,98094.71
2024-01-04T03:17:06.278Z,98099.09
2024-01-04T03:19:38.776Z,98107.93
2024-01-04T03:22:12.159Z,98099.92
2024-01-04T03:24:44.638Z,98104.91
2024-01-04T03:27:17.262Z,98106.59
2024-01-04T03:29:51.577Z,98114.03
2024-01-04T03:32:23.255Z,98112.70
2024-01-04T03:34:55.820Z,98123.75
2024-01-04T03:37:29.334Z,98124.70
2024-01-04T03:40:01.951Z,98118.28
2024-01-04T03:42:34.683Z,98124.45
2024-01-04T03:45:08.657Z,98118.48
2024-01-04T03:47:41.408Z,98112.89
2024-01-04T03:50:14.245Z,98113.75
2024-01-04T03:52:46.803Z,98111.91
2024-01-04T03:55:19.701Z,98115.31
2024-01-04T03:57:52.265Z,98121.00
2024-01-04T04:00:25.849Z,98127.42
2024-01-04T04:02:58.354Z,98134.48
2024-01-04T04:05:30.901Z,98123.80
2024-01-04T04:08:03.274Z,98125.86
2024-01-04T04:10:35.712Z,98131.20
2024-01-04T04:13:08.444Z,98130.72
2024-01-04T04:15:41.543Z,98131.13
2024-01-04T04:18:14.239Z,98131.83
2024-01-04T04:20:47.263Z,98136.44
2024-01-04T04:23:20.008Z,98145.66
2024-01-04T04:25:52.694Z,98148.33
2024-01-04T04:28:25.571Z,98152.84
2024-01-04T04:30:58.301Z,98153.31
2024-01-04T04:33:30.985Z,98158.88
2024-01-04T04:36:04.694Z,98151.13
2024-01-04T04:38:37.429Z,98145.79
2024-01-04T04:41:10.259Z,98138.25
2024-01-04T04:43:42.745Z,98134.00
2024-01-04T04:46:15.458Z,98140.80
2024-01-04T04:48:48.877Z,98140.45
2024-01-04T04:51:21.660Z,98142.86
2024-01-04T04:53:58.049Z,98148.09
2024-01-04T04:56:30.835Z,98152.96
2024-01-04T04:59:06.542Z,98152.48
2024-01-04T05:01:40.903Z,98155.50
2024-01-04T05:04:14.390Z,98158.65
2024-01-04T05:06:58.220Z,98157.69
2024-01-04T05:09:31.051Z,98172.24
2024-01-04T05:12:03.684Z,98163.28
2024-01-04T05:14:36.769Z,98170.08
2024-01-04T05:17:09.213Z,98175.16
2024-01-04T05:19:41.864Z,98181.70
2024-01-04T05:22:14.870Z,98179.92
2024-01-04T05:24:47.821Z,98189.48
2024-01-04T05:27:22.115Z,98186.94
2024-01-04T05:29:56.392Z,98184.75
2024-01-04T05:32:29.130Z,98185.75
2024-01-04T05:35:01.541Z,98194.23
2024-01-04T05:37:34.880Z,98194.11
2024-01-04T05:40:08.609Z,98205.64
2024-01-04T05:42:41.490Z,98204.08
2024-01-04T05:45:14.165Z,98199.09
2024-01-04T05:47:48.444Z,98201.02
2024-01-04T05:50:21.036Z,98205.29
2024-01-04T05:52:53.747Z,98215.97
2024-01-04T05:55:26.265Z,98218.86
2024-01-04T05:57:59.299Z,98211.95
2024-01-04T06:00:32.269Z,98215.32
2024-01-04T06:03:05.602Z,98221.04
2024-01-04T06:05:38.306Z,98226.98
2024-01-04T06:08:10.719Z,98232.31
2024-01-04T06:10:43.473Z,98222.38
2024-01-04T06:13:17.161Z,98222.73
2024-01-04T06:15:49.899Z,98225.40
2024-01-04T06:18:23.401Z,98224.17
2024-01-04T06:20:56.225Z,98231.21
2024-01-04T06:23:30.120Z,98234.27
2024-01-04T06:26:02.767Z,98227.20
2024-01-04T06:28:38.591Z,98231.22
2024-01-04T06:31:11.242Z,98239.13
2024-01-04T06:33:43.800Z,98235.84
2024-01-04T06:36:16.426Z,98231.83
2024-01-04T06:38:50.248Z,98235.84
2024-01-04T06:41:24.802Z,98237.29
2024-01-04T06:43:57.678Z,98231.02
2024-01-04T06:46:30.191Z,98236.33
2024-01-04T06:49:02.786Z,98241.55
2024-01-04T06:51:35.599Z,98245.91
2024-01-04T06:54:08.479Z,98245.55
2024-01-04T06:56:42.364Z,98245.20
2024-01-04T06:59:15.367Z,98248.58
2024-01-04T07:01:48.050Z,98246.77
2024-01-04T07:04:20.784Z,98252.70
2024-01-04T07:06:53.196Z,98257.44
2024-01-04T07:09:25.828Z,98251.98
2024-01-04T07:11:59.159Z,98258.30
2024-01-04T07:14:31.652Z,98255.25
2024-01-04T07:17:05.631Z,98250.54
2024-01-04T07:19:38.395Z,98254.06
2024-01-04T07:22:11.649Z,98259.51
2024-01-04T07:24:45.240Z,98264.96
2024-01-04T07:27:17.771Z,98256.59
2024-01-04T07:29:50.395Z,98262.90
2024-01-04T07:32:23.122Z,98263.61
2024-01-04T07:35:04.140Z,98263.23
2024-01-04T07:37:30.123Z,98258.88
2024-01-04T07:40:04.889Z,98255.73
2024-01-04T07:42:37.772Z,98272.60
2024-01-04T07:45:12.520Z,98263.49
2024-01-04T07:47:45.469Z,98268.70
2024-01-04T07:50:18.106Z,98259.47
2024-01-04T07:52:50.661Z,98268.81
2024-01-04T07:55:24.365Z,98258.47
2024-01-04T07:57:56.966Z,98258.48
2024-01-04T08:00:30.542Z,98259.69
2024-01-04T08:03:05.181Z,98251.62
2024-01-04T08:05:38.789Z,98252.81
2024-01-04T08:08:11.338Z,98258.62
2024-01-04T08:10:43.923Z,98250.33
2024-01-04T08:13:17.674Z,98255.67
2024-01-04T08:15:52.694Z,98259.67
2024-01-04T08:18:25.404Z,98262.45
2024-01-04T08:20:58.099Z,98263.05
2024-01-04T08:23:31.707Z,98266.11
2024-01-04T08:26:07.900Z,98265.27
2024-01-04T08:28:41.292Z,98267.84
2024-01-04T08:31:13.681Z,98263.84
2024-01-04T08:33:47.480Z,98267.62
2024-01-04T08:36:20.709Z,98265.07
2024-01-04T08:38:53.560Z,98263.35
2024-01-04T08:41:26.231Z,98263.73
2024-01-04T08:43:58.678Z,98266.76
2024-01-04T08:46:31.577Z,98267.11
2024-01-04T08:49:07.297Z,98260.08
2024-01-04T08:51:39.718Z,98266.28
2024-01-04T08:54:12.255Z,98265.65
2024-01-04T08:56:45.745Z,98267.37
2024-01-04T08:59:18.370Z,98266.00
2024-01-04T09:01:51.178Z,98272.19
2024-01-04T09:04:24.583Z,98267.16
2024-01-04T09:06:58.993Z,98264.11
2024-01-04T09:09:31.575Z,98257.39
2024-01-04T09:12:05.329Z,98260.45
2024-01-04T09:14:38.024Z,98260.83
2024-01-04T09:17:10.666Z,98262.39
2024-01-04T09:19:44.438Z,98257.77
2024-01-04T09:22:17.012Z,98262.14
2024-01-04T09:24:49.577Z,98262.52
2024-01-04T09:27:23.507Z,98257.77
2024-01-04T09:29:56.470Z,98256.82
2024-01-04T09:32:30.858Z,98259.37
2024-01-04T09:35:03.288Z,98258.51
2024-01-04T09:37:35.945Z,98258.73
2024-01-04T09:40:09.762Z,98247.56
2024-01-04T09:42:42.332Z,98258.38
2024-01-04T09:45:15.400Z,98260.20
2024-01-04T09:47:51.658Z,98256.12
2024-01-04T09:50:25.353Z,98256.34
2024-01-04T09:52:58.302Z,98259.49
2024-01-04T09:55:32.165Z,98255.84
2024-01-04T09:58:06.531Z,98256.44
2024-01-04T10:00:39.472Z,98255.33
2024-01-04T10:03:13.996Z,98252.88
2024-01-04T10:05:46.787Z,98251.63
2024-01-04T10:08:30.159Z,98248.31
2024-01-04T10:11:07.368Z,98266.04
2024-01-04T10:13:41.114Z,98246.55
2024-01-04T10:16:15.394Z,98245.56
2024-01-04T10:18:48.168Z,98243.14
2024-01-04T10:21:20.848Z,98243.58
2024-01-04T10:24:03.975Z,98243.79
2024-01-04T10:26:36.728Z,98244.18
2024-01-04T10:29:12.233Z,98239.82
2024-01-04T10:31:44.993Z,98236.16
2024-01-04T10:34:20.656Z,98235.03
2024-01-04T10:36:53.600Z,98240.16
2024-01-04T10:39:26.252Z,98231.63
2024-01-04T10:42:02.618Z,98231.23
2024-01-04T10:44:35.619Z,98233.86
2024-01-04T10:47:10.515Z,98223.64
2024-01-04T10:49:44.533Z,98238.74
2024-01-04T10:52:18.875Z,98222.34
2024-01-04T10:54:51.425Z,98230.16
2024-01-04T10:57:24.129Z,98229.03
2024-01-04T10:59:57.747Z,98226.22
2024-01-04T11:02:30.461Z,98230.80
2024-01-04T11:05:04.323Z,98235.55
2024-01-04T11:07:42.836Z,98227.13
2024-01-04T11:10:15.821Z,98237.30
2024-01-04T11:12:49.632Z,98227.88
2024-01-04T11:15:23.452Z,98225.67
2024-01-04T11:18:18.811Z,98224.48
2024-01-04T11:20:56.739Z,98227.05
2024-01-04T11:23:43.939Z,98225.91
2024-01-04T11:26:33.342Z,98225.23
2024-01-04T11:29:08.878Z,98227.27
2024-01-04T11:31:48.235Z,98223.83
2024-01-04T11:34:22.470Z,98225.86
2024-01-04T11:37:13.966Z,98240.11
2024-01-04T11:40:04.278Z,98235.88
2024-01-04T11:42:43.754Z,98239.96
2024-01-04T11:45:19.711Z,98232.80
2024-01-04T11:47:53.538Z,98224.65
2024-01-04T11:50:28.994Z,98235.20
2024-01-04T11:53:08.913Z,98231.45
2024-01-04T11:55:43.211Z,98244.23
2024-01-04T11:58:18.493Z,98249.03
2024-01-04T12:00:54.212Z,98258.88
2024-01-04T12:03:31.953Z,98263.33
2024-01-04T12:06:04.835Z,98261.31
2024-01-04T12:08:37.629Z,98256.59
2024-01-04T12:11:10.449Z,98258.07
2024-01-04T12:13:45.148Z,98248.19
2024-01-04T12:16:18.652Z,98256.59
2024-01-04T12:18:51.335Z,98250.98
2024-01-04T12:21:25.590Z,98254.27
2024-01-04T12:23:59.586Z,98244.48
2024-01-04T12:26:32.035Z,98252.20
2024-01-04T12:29:05.627Z,98256.22
2024-01-04T12:31:41.558Z,98251.52
2024-01-04T12:34:14.429Z,98249.44
2024-01-04T12:36:48.601Z,98255.78
2024-01-04T12:39:22.025Z,98256.98
2024-01-04T12:41:54.673Z,98259.19
2024-01-04T12:44:27.598Z,98258.81
2024-01-04T12:47:07.121Z,98258.94
2024-01-04T12:49:42.157Z,98265.75
2024-01-04T12:52:15.735Z,98261.74
2024-01-04T12:54:48.930Z,98267.09
2024-01-04T12:57:21.486Z,98270.28
2024-01-04T12:59:54.510Z,98275.76
2024-01-04T13:02:28.486Z,98277.36
2024-01-04T13:05:01.300Z,98277.27
2024-01-04T13:07:35.544Z,98285.29
2024-01-04T13:10:12.679Z,98285.89
2024-01-04T13:12:45.245Z,98285.16
2024-01-04T13:15:17.950Z,98287.97
2024-01-04T13:17:50.510Z,98289.91
2024-01-04T13:20:24.115Z,98296.59
2024-01-04T13:22:56.603Z,98297.08
2024-01-04T13:25:29.100Z,98310.95
2024-01-04T13:28:01.894Z,98309.49
2024-01-04T13:30:35.262Z,98306.63
2024-01-04T13:33:08.095Z,98319.91
2024-01-04T13:35:40.785Z,98314.43
2024-01-04T13:38:13.801Z,98319.02
2024-01-04T13:40:47.080Z,98316.98
2024-01-04T13:43:19.532Z,98320.86
2024-01-04T13:45:55.636Z,98322.58
2024-01-04T13:48:30.163Z,98325.25
2024-01-04T13:51:02.885Z,98321.24
2024-01-04T13:53:35.772Z,98321.24
2024-01-04T13:56:11.692Z,98321.94
2024-01-04T13:58:45.512Z,98329.48
2024-01-04T14:01:18.858Z,98325.13
2024-01-04T14:03:52.943Z,98332.64
2024-01-04T14:06:25.710Z,98327.29
2024-01-04T14:09:00.428Z,98331.17
2024-01-04T14:11:34.860Z,98330.60
2024-01-04T14:14:09.455Z,98327.45
2024-01-04T14:16:42.072Z,98327.95
2024-01-04T14:19:15.258Z,98331.61
2024-01-04T14:21:49.277Z,98331.41
2024-01-04T14:24:23.507Z,98335.67
2024-01-04T14:26:57.001Z,98337.61
2024-01-04T14:29:29.911Z,98337.96
2024-01-04T14:32:04.746Z,98336.17
2024-01-04T14:34:38.850Z,98336.42
2024-01-04T14:37:12.028Z,98326.33
2024-01-04T14:39:45.358Z,98335.44
2024-01-04T14:42:18.047Z,98330.83
2024-01-04T14:44:51.292Z,98334.94
2024-01-04T14:47:24.279Z,98336.02
2024-01-04T14:49:57.560Z,98334.56
2024-01-04T14:52:30.052Z,98337.34
2024-01-04T14:55:04.114Z,98335.17
2024-01-04T14:57:37.379Z,98338.32
2024-01-04T15:00:13.160Z,98337.36
2024-01-04T15:02:46.550Z,98338.59
2024-01-04T15:05:19.790Z,98333.25
2024-01-04T15:07:53.998Z,98336.02
2024-01-04T15:10:27.411Z,98326.57
2024-01-04T15:13:01.744Z,98327.64
2024-01-04T15:15:37.767Z,98334.48
2024-01-04T15:18:09.029Z,98325.13
2024-01-04T15:20:42.002Z,98325.48
2024-01-04T15:23:15.203Z,98333.85
2024-01-04T15:25:48.911Z,98342.23
2024-01-04T15:28:22.603Z,98330.92
2024-01-04T15:30:56.119Z,98341.17
2024-01-04T15:33:29.360Z,98346.25
2024-01-04T15:36:02.543Z,98346.25
2024-01-04T15:38:35.451Z,98353.80
2024-01-04T15:41:08.120Z,98348.58
2024-01-04T15:43:43.733Z,98352.46
2024-01-04T15:46:17.325Z,98348.20
2024-01-04T15:48:50.089Z,98341.27
2024-01-04T15:51:23.328Z,98344.17
2024-01-04T15:53:59.433Z,98348.41
2024-01-04T15:56:33.008Z,98337.27
2024-01-04T15:59:09.611Z,98345.53
2024-01-04T16:01:42.193Z,98338.84
2024-01-04T16:04:15.439Z,98346.23
2024-01-04T16:06:48.188Z,98349.53
2024-01-04T16:09:21.652Z,98347.34
2024-01-04T16:11:54.200Z,98353.55
2024-01-04T16:14:26.702Z,98345.53
2024-01-04T16:16:59.297Z,98349.31
2024-01-04T16:19:31.958Z,98340.91
2024-01-04T16:22:05.441Z,98345.65
2024-01-04T16:24:38.192Z,98343.10
2024-01-04T16:27:10.759Z,98342.12
2024-01-04T16:29:43.959Z,98347.11
2024-01-04T16:32:16.519Z,98351.25
2024-01-04T16:34:49.006Z,98354.53
2024-01-04T16:37:22.547Z,98351.23
2024-01-04T16:39:55.571Z,98350.62
2024-01-04T16:42:28.189Z,98351.71
2024-01-04T16:45:01.023Z,98342.95
2024-01-04T16:47:34.011Z,98346.11
2024-01-04T16:50:08.359Z,98350.11
2024-01-04T16:52:40.233Z,98353.30
2024-01-04T16:55:12.677Z,98350.98
2024-01-04T16:57:46.249Z,98348.91
2024-01-04T17:00:19.428Z,98351.45
2024-01-04T17:02:52.326Z,98349.89
2024-01-04T17:05:25.521Z,98361.44
2024-01-04T17:07:59.020Z,98358.26
2024-01-04T17:10:34.750Z,98352.09
2024-01-04T17:13:14.678Z,98359.00
2024-01-04T17:15:48.022Z,98356.32
2024-01-04T17:18:21.712Z,98359.09
2024-01-04T17:20:54.642Z,98363.48
2024-01-04T17:23:28.830Z,98363.08
2024-01-04T17:26:01.666Z,98368.69
2024-01-04T17:28:34.693Z,98368.05
2024-01-04T17:31:07.614Z,98367.48
2024-01-04T17:33:40.737Z,98370.98
2024-01-04T17:36:24.877Z,98369.52
2024-01-04T17:38:47.895Z,98366.02
2024-01-04T17:41:20.324Z,98361.76
2024-01-04T17:43:54.300Z,98364.05
2024-01-04T17:46:27.664Z,98359.33
2024-01-04T17:49:00.644Z,98362.95
2024-01-04T17:51:36.944Z,98366.14
2024-01-04T17:54:10.686Z,98359.23
2024-01-04T17:56:43.530Z,98364.19
2024-01-04T17:59:17.779Z,98365.18
2024-01-04T18:01:51.279Z,98359.60
2024-01-04T18:04:23.861Z,98358.88
2024-01-04T18:06:57.252Z,98355.33
2024-01-04T18:09:30.224Z,98362.27
2024-01-04T18:12:03.469Z,98359.37
2024-01-04T18:14:37.019Z,98362.55
2024-01-04T18:17:10.129Z,98369.83
2024-01-04T18:19:44.508Z,98360.83
2024-01-04T18:22:17.651Z,98364.59
2024-01-04T18:24:50.835Z,98356.22
2024-01-04T18:27:24.111Z,98363.60
2024-01-04T18:29:59.763Z,98367.02
2024-01-04T18:32:32.475Z,98366.27
2024-01-04T18:35:06.665Z,98368.84
2024-01-04T18:37:39.471Z,98368.49
2024-01-04T18:40:12.763Z,98365.82
2024-01-04T18:42:47.485Z,98366.30
2024-01-04T18:45:19.317Z,98359.98
2024-01-04T18:47:51.974Z,98358.41
2024-01-04T18:50:25.097Z,98360.72
2024-01-04T18:52:57.548Z,98355.37
2024-01-04T18:55:32.055Z,98361.70
2024-01-04T18:58:10.798Z,98365.22
2024-01-04T19:00:45.832Z,98362.27
2024-01-04T19:03:18.571Z,98363.25
2024-01-04T19:05:52.276Z,98357.20
2024-01-04T19:08:24.839Z,98372.86
2024-01-04T19:10:59.838Z,98368.84
2024-01-04T19:13:33.152Z,98371.91
2024-01-04T19:16:06.584Z,98374.42
2024-01-04T19:18:40.016Z,98375.41
2024-01-04T19:21:24.215Z,98378.42
2024-01-04T19:23:57.362Z,98373.94
2024-01-04T19:26:30.645Z,98371.27
2024-01-04T19:29:03.854Z,98371.63
2024-01-04T19:31:37.189Z,98371.63
2024-01-04T19:34:09.941Z,98375.63
2024-01-04T19:36:44.073Z,98373.69
2024-01-04T19:39:16.465Z,98374.43
2024-01-04T19:41:50.662Z,98372.97
2024-01-04T19:44:22.458Z,98369.56
2024-01-04T19:46:54.730Z,98370.55
2024-01-04T19:49:28.975Z,98375.28
2024-01-04T19:52:03.137Z,98376.62
2024-01-04T19:54:37.013Z,98377.25
2024-01-04T19:57:10.538Z,98378.20
2024-01-04T19:59:43.077Z,98382.20
2024-01-04T20:02:15.922Z,98386.60
2024-01-04T20:04:48.516Z,98393.28
2024-01-04T20:07:22.895Z,98399.48
2024-01-04T20:09:56.717Z,98396.80
2024-01-04T20:12:29.559Z,98400.70
2024-01-04T20:15:02.291Z,98405.80
2024-01-04T20:17:36.292Z,98402.42
2024-01-04T20:20:12.327Z,98408.12
2024-01-04T20:22:47.007Z,98400.45
2024-01-04T20:25:20.169Z,98392.95
2024-01-04T20:27:52.980Z,98384.30
2024-01-04T20:30:27.450Z,98392.07
2024-01-04T20:33:00.747Z,98388.78
2024-01-04T20:35:34.228Z,98396.06
2024-01-04T20:38:07.960Z,98403.11
2024-01-04T20:40:42.242Z,98396.64
2024-01-04T20:43:15.956Z,98392.89
2024-01-04T20:45:48.909Z,98398.94
2024-01-04T20:48:22.170Z,98397.72
2024-01-04T20:50:55.571Z,98399.44
2024-01-04T20:53:28.314Z,98402.11
2024-01-04T20:56:01.224Z,98394.46
2024-01-04T21:01:18.806Z,98401.50
2024-01-04T21:03:52.067Z,98387.30
2024-01-04T21:06:25.184Z,98392.02
2024-01-04T21:08:58.700Z,98386.06
2024-01-04T21:11:31.694Z,98390.18
2024-01-04T21:14:05.969Z,98388.72
2024-01-04T21:16:38.461Z,98381.80
2024-01-04T21:19:12.209Z,98374.86
2024-01-04T21:21:45.200Z,98379.86
2024-01-04T21:24:18.833Z,98392.24
2024-01-04T21:26:51.725Z,98392.36
2024-01-04T21:29:24.830Z,98390.08
2024-01-04T21:31:58.733Z,98395.31
2024-01-04T21:34:31.615Z,98391.31
2024-01-04T21:37:06.011Z,98386.21
2024-01-04T21:39:38.783Z,98399.33
2024-01-04T21:42:13.319Z,98388.77
2024-01-04T21:44:46.409Z,98397.77
2024-01-04T21:47:18.968Z,98391.44
2024-01-04T21:49:51.433Z,98405.89
2024-01-04T21:52:24.809Z,98399.56
2024-01-04T21:54:57.298Z,98400.90
2024-01-04T21:57:30.454Z,98405.05
2024-01-04T22:00:07.558Z,98393.84
2024-01-04T22:02:41.848Z,98400.53
2024-01-04T22:05:14.521Z,98402.95
2024-01-04T22:07:47.430Z,98407.09
2024-01-04T22:10:25.823Z,98402.60
2024-01-04T22:12:55.626Z,98405.28
2024-01-04T22:15:29.746Z,98411.48
2024-01-04T22:18:03.424Z,98408.80
2024-01-04T22:20:36.272Z,98414.27
2024-01-04T22:23:09.993Z,98406.49
2024-01-04T22:25:44.591Z,98413.91
2024-01-04T22:28:16.316Z,98414.14
2024-01-04T22:30:49.928Z,98420.34
2024-01-04T22:33:24.077Z,98423.39
2024-01-04T22:35:57.773Z,98420.96
2024-01-04T22:41:28.417Z,98413.58
2024-01-04T22:44:12.509Z,98416.95
2024-01-04T22:46:45.580Z,98412.59
2024-01-04T22:49:18.127Z,98417.59
2024-01-04T22:51:51.144Z,98420.86
2024-01-04T22:54:24.528Z,98418.30
2024-01-04T22:56:57.413Z,98423.17
2024-01-04T22:59:30.977Z,98424.63
2024-01-04T23:02:05.440Z,98423.65
2024-01-04T23:04:41.290Z,98426.44
2024-01-04T23:07:14.029Z,98428.38
2024-01-04T23:09:47.549Z,98429.48
2024-01-04T23:12:20.670Z,98433.26
2024-01-04T23:14:53.398Z,98433.50
2024-01-04T23:17:27.926Z,98437.01
2024-01-04T23:20:01.036Z,98433.40
2024-01-04T23:22:38.911Z,98431.67
2024-01-04T23:25:13.441Z,98428.53
2024-01-04T23:27:46.155Z,98433.13
2024-01-04T23:30:19.813Z,98437.26
2024-01-04T23:32:52.629Z,98439.34
2024-01-04T23:35:25.186Z,98438.36
2024-01-04T23:37:58.490Z,98445.89
2024-01-04T23:40:30.852Z,98441.41
2024-01-04T23:43:04.387Z,98444.08
2024-01-04T23:45:36.970Z,98442.36
2024-01-04T23:48:09.857Z,98444.43
2024-01-04T23:50:42.617Z,98442.11
2024-01-04T23:53:15.109Z,98445.17
2024-01-04T23:55:50.317Z,98451.34
2024-01-04T23:58:24.028Z,98452.33
